sensor_id;sensor_type;location;lat;lon;timestamp;pressure;altitude;pressure_sealevel;temperature;humidity
34124;BME280;13153;52.316;21.166;2024-02-16T00:01:31;101038.59;;;12.16;53.66
34124;BME280;13153;52.316;21.166;2024-02-16T00:03:57;101035.47;;;12.29;53.46
34124;BME280;13153;52.316;21.166;2024-02-16T00:06:23;101036.09;;;12.20;53.66
34124;BME280;13153;52.316;21.166;2024-02-16T00:08:48;101036.09;;;12.20;53.63
34124;BME280;13153;52.316;21.166;2024-02-16T00:11:14;101042.22;;;12.19;53.29
34124;BME280;13153;52.316;21.166;2024-02-16T00:13:40;101030.72;;;12.17;53.62
34124;BME280;13153;52.316;21.166;2024-02-16T00:16:06;101041.38;;;12.20;53.27
34124;BME280;13153;52.316;21.166;2024-02-16T00:18:33;101037.19;;;12.27;53.29
34124;BME280;13153;52.316;21.166;2024-02-16T00:20:58;101035.56;;;12.32;53.11
34124;BME280;13153;52.316;21.166;2024-02-16T00:23:24;101043.53;;;12.04;53.47
34124;BME280;13153;52.316;21.166;2024-02-16T00:25:51;101044.09;;;12.23;53.34
34124;BME280;13153;52.316;21.166;2024-02-16T00:28:16;101038.25;;;12.34;53.12
34124;BME280;13153;52.316;21.166;2024-02-16T00:30:42;101038.16;;;12.31;53.08
34124;BME280;13153;52.316;21.166;2024-02-16T00:33:08;101043.56;;;12.05;53.53
34124;BME280;13153;52.316;21.166;2024-02-16T00:35:34;101035.09;;;12.17;53.31
34124;BME280;13153;52.316;21.166;2024-02-16T00:38:00;101034.06;;;12.10;53.84
34124;BME280;13153;52.316;21.166;2024-02-16T00:40:26;101037.94;;;12.23;53.41
34124;BME280;13153;52.316;21.166;2024-02-16T00:42:52;101042.25;;;12.21;53.22
34124;BME280;13153;52.316;21.166;2024-02-16T00:45:18;101040.66;;;12.26;52.98
34124;BME280;13153;52.316;21.166;2024-02-16T00:47:44;101032.28;;;11.82;54.15
34124;BME280;13153;52.316;21.166;2024-02-16T00:50:11;101032.78;;;11.98;53.80
34124;BME280;13153;52.316;21.166;2024-02-16T00:52:37;101026.00;;;12.06;53.71
34124;BME280;13153;52.316;21.166;2024-02-16T00:55:05;101030.09;;;11.96;54.03
34124;BME280;13153;52.316;21.166;2024-02-16T00:57:31;101021.66;;;12.08;53.43
34124;BME280;13153;52.316;21.166;2024-02-16T00:59:58;101022.84;;;12.19;53.05
34124;BME280;13153;52.316;21.166;2024-02-16T01:02:24;101009.09;;;11.99;53.65
34124;BME280;13153;52.316;21.166;2024-02-16T01:04:50;101015.81;;;11.89;53.65
34124;BME280;13153;52.316;21.166;2024-02-16T01:07:17;101009.09;;;11.99;53.48
34124;BME280;13153;52.316;21.166;2024-02-16T01:09:43;100996.38;;;11.86;53.64
34124;BME280;13153;52.316;21.166;2024-02-16T01:12:09;101000.56;;;11.79;53.84
34124;BME280;13153;52.316;21.166;2024-02-16T01:14:34;100994.06;;;11.97;53.59
34124;BME280;13153;52.316;21.166;2024-02-16T01:17:00;101003.50;;;11.63;54.06
34124;BME280;13153;52.316;21.166;2024-02-16T01:19:26;100996.41;;;11.61;54.14
34124;BME280;13153;52.316;21.166;2024-02-16T01:21:51;100994.56;;;11.58;54.05
34124;BME280;13153;52.316;21.166;2024-02-16T01:24:23;100994.75;;;11.64;53.99
34124;BME280;13153;52.316;21.166;2024-02-16T01:26:49;100999.22;;;11.67;53.87
34124;BME280;13153;52.316;21.166;2024-02-16T01:29:15;100997.34;;;11.63;54.00
34124;BME280;13153;52.316;21.166;2024-02-16T01:31:40;100983.81;;;11.50;54.41
34124;BME280;13153;52.316;21.166;2024-02-16T01:34:06;100983.75;;;11.49;54.30
34124;BME280;13153;52.316;21.166;2024-02-16T01:36:32;100990.66;;;11.45;54.21
34124;BME280;13153;52.316;21.166;2024-02-16T01:38:58;100985.94;;;11.35;54.49
34124;BME280;13153;52.316;21.166;2024-02-16T01:41:24;100980.88;;;11.41;54.47
34124;BME280;13153;52.316;21.166;2024-02-16T01:43:55;100986.53;;;11.53;53.88
34124;BME280;13153;52.316;21.166;2024-02-16T01:46:21;100988.59;;;11.64;53.61
34124;BME280;13153;52.316;21.166;2024-02-16T01:48:48;100991.28;;;11.65;53.34
34124;BME280;13153;52.316;21.166;2024-02-16T01:51:16;100983.88;;;11.80;52.96
34124;BME280;13153;52.316;21.166;2024-02-16T01:53:42;100981.44;;;11.59;53.46
34124;BME280;13153;52.316;21.166;2024-02-16T01:56:08;100977.41;;;11.71;53.26
34124;BME280;13153;52.316;21.166;2024-02-16T01:58:34;100990.47;;;11.68;53.20
34124;BME280;13153;52.316;21.166;2024-02-16T02:01:00;100987.69;;;11.63;53.26
34124;BME280;13153;52.316;21.166;2024-02-16T02:03:25;101004.56;;;11.68;53.43
34124;BME280;13153;52.316;21.166;2024-02-16T02:05:52;100986.81;;;11.63;53.02
34124;BME280;13153;52.316;21.166;2024-02-16T02:08:20;100983.41;;;11.67;52.99
34124;BME280;13153;52.316;21.166;2024-02-16T02:10:45;100978.69;;;11.55;53.27
34124;BME280;13153;52.316;21.166;2024-02-16T02:13:11;100980.81;;;11.68;52.71
34124;BME280;13153;52.316;21.166;2024-02-16T02:15:37;100982.31;;;11.60;52.98
34124;BME280;13153;52.316;21.166;2024-02-16T02:18:03;100982.38;;;11.88;52.32
34124;BME280;13153;52.316;21.166;2024-02-16T02:20:29;100978.75;;;11.85;52.48
34124;BME280;13153;52.316;21.166;2024-02-16T02:22:54;100983.31;;;11.90;51.90
34124;BME280;13153;52.316;21.166;2024-02-16T02:25:20;100978.53;;;11.77;52.04
34124;BME280;13153;52.316;21.166;2024-02-16T02:27:47;100973.13;;;11.74;52.31
34124;BME280;13153;52.316;21.166;2024-02-16T02:30:12;100975.38;;;11.89;51.95
34124;BME280;13153;52.316;21.166;2024-02-16T02:32:38;100974.38;;;11.58;52.47
34124;BME280;13153;52.316;21.166;2024-02-16T02:35:06;100969.72;;;11.77;52.25
34124;BME280;13153;52.316;21.166;2024-02-16T02:37:31;100973.66;;;11.91;51.94
34124;BME280;13153;52.316;21.166;2024-02-16T02:39:57;100979.75;;;11.88;51.75
34124;BME280;13153;52.316;21.166;2024-02-16T02:42:23;100975.13;;;11.81;52.13
34124;BME280;13153;52.316;21.166;2024-02-16T02:44:49;100970.94;;;11.88;51.81
34124;BME280;13153;52.316;21.166;2024-02-16T02:47:17;100967.13;;;11.78;51.86
34124;BME280;13153;52.316;21.166;2024-02-16T02:49:44;100966.22;;;11.78;51.78
34124;BME280;13153;52.316;21.166;2024-02-16T02:52:10;100963.41;;;11.73;51.78
34124;BME280;13153;52.316;21.166;2024-02-16T02:54:36;100967.91;;;11.76;51.67
34124;BME280;13153;52.316;21.166;2024-02-16T02:57:03;100965.84;;;11.67;51.86
34124;BME280;13153;52.316;21.166;2024-02-16T02:59:28;100970.69;;;11.52;52.37
34124;BME280;13153;52.316;21.166;2024-02-16T03:01:54;100972.47;;;11.53;52.28
34124;BME280;13153;52.316;21.166;2024-02-16T03:04:20;100981.44;;;11.59;52.03
34124;BME280;13153;52.316;21.166;2024-02-16T03:06:46;100981.34;;;11.56;51.94
34124;BME280;13153;52.316;21.166;2024-02-16T03:09:12;100977.59;;;11.48;52.04
34124;BME280;13153;52.316;21.166;2024-02-16T03:11:38;100979.22;;;11.45;52.15
34124;BME280;13153;52.316;21.166;2024-02-16T03:14:05;100979.53;;;11.54;51.92
34124;BME280;13153;52.316;21.166;2024-02-16T03:16:31;100980.91;;;11.43;52.25
34124;BME280;13153;52.316;21.166;2024-02-16T03:18:58;100980.19;;;11.47;51.98
34124;BME280;13153;52.316;21.166;2024-02-16T03:21:23;100983.00;;;11.53;52.09
34124;BME280;13153;52.316;21.166;2024-02-16T03:23:49;100982.16;;;11.54;51.62
34124;BME280;13153;52.316;21.166;2024-02-16T03:26:17;100978.38;;;11.46;51.81
34124;BME280;13153;52.316;21.166;2024-02-16T03:28:45;100980.97;;;11.44;51.78
34124;BME280;13153;52.316;21.166;2024-02-16T03:31:22;100985.25;;;11.41;51.87
34124;BME280;13153;52.316;21.166;2024-02-16T03:33:49;100984.09;;;11.33;52.06
34124;BME280;13153;52.316;21.166;2024-02-16T03:36:15;100986.78;;;11.34;51.90
34124;BME280;13153;52.316;21.166;2024-02-16T03:38:46;100980.63;;;11.34;51.97
34124;BME280;13153;52.316;21.166;2024-02-16T03:41:14;100989.63;;;11.40;51.91
34124;BME280;13153;52.316;21.166;2024-02-16T03:43:41;100984.00;;;11.30;52.05
34124;BME280;13153;52.316;21.166;2024-02-16T03:46:08;100983.34;;;11.37;51.67
34124;BME280;13153;52.316;21.166;2024-02-16T03:48:34;100987.22;;;11.21;52.11
34124;BME280;13153;52.316;21.166;2024-02-16T03:51:00;100975.88;;;11.23;51.96
34124;BME280;13153;52.316;21.166;2024-02-16T03:53:26;100976.09;;;11.30;51.86
34124;BME280;13153;52.316;21.166;2024-02-16T03:55:52;100974.78;;;11.17;51.83
34124;BME280;13153;52.316;21.166;2024-02-16T03:58:18;100977.91;;;11.05;52.19
34124;BME280;13153;52.316;21.166;2024-02-16T04:00:43;100981.03;;;10.94;52.33
34124;BME280;13153;52.316;21.166;2024-02-16T04:03:09;100975.94;;;11.00;52.24
34124;BME280;13153;52.316;21.166;2024-02-16T04:05:38;100977.94;;;11.07;52.01
34124;BME280;13153;52.316;21.166;2024-02-16T04:08:04;100981.63;;;11.12;52.00
34124;BME280;13153;52.316;21.166;2024-02-16T04:10:32;100982.22;;;11.03;52.10
34124;BME280;13153;52.316;21.166;2024-02-16T04:12:58;100980.31;;;10.99;52.24
34124;BME280;13153;52.316;21.166;2024-02-16T04:15:24;100977.63;;;10.98;52.21
34124;BME280;13153;52.316;21.166;2024-02-16T04:17:50;100987.97;;;10.91;52.04
34124;BME280;13153;52.316;21.166;2024-02-16T04:20:16;100988.66;;;10.86;52.19
34124;BME280;13153;52.316;21.166;2024-02-16T04:22:42;100982.56;;;10.87;52.29
34124;BME280;13153;52.316;21.166;2024-02-16T04:25:08;100984.69;;;10.73;52.58
34124;BME280;13153;52.316;21.166;2024-02-16T04:27:35;100977.75;;;10.75;52.52
34124;BME280;13153;52.316;21.166;2024-02-16T04:30:03;100979.72;;;10.81;52.35
34124;BME280;13153;52.316;21.166;2024-02-16T04:32:29;100977.59;;;10.71;52.28
34124;BME280;13153;52.316;21.166;2024-02-16T04:34:55;100973.91;;;10.66;52.33
34124;BME280;13153;52.316;21.166;2024-02-16T04:37:22;100974.34;;;10.54;52.57
34124;BME280;13153;52.316;21.166;2024-02-16T04:39:49;100976.19;;;10.56;52.53
34124;BME280;13153;52.316;21.166;2024-02-16T04:42:16;100975.63;;;10.65;52.10
34124;BME280;13153;52.316;21.166;2024-02-16T04:44:42;100971.38;;;10.69;52.33
34124;BME280;13153;52.316;21.166;2024-02-16T04:47:08;100973.78;;;10.63;52.25
34124;BME280;13153;52.316;21.166;2024-02-16T04:49:35;100969.53;;;10.42;52.58
34124;BME280;13153;52.316;21.166;2024-02-16T04:52:02;100969.94;;;10.53;52.57
34124;BME280;13153;52.316;21.166;2024-02-16T04:54:27;100964.28;;;10.42;52.42
34124;BME280;13153;52.316;21.166;2024-02-16T04:56:53;100962.81;;;10.50;52.42
34124;BME280;13153;52.316;21.166;2024-02-16T04:59:19;100967.31;;;10.53;52.50
34124;BME280;13153;52.316;21.166;2024-02-16T05:01:45;100966.84;;;10.39;52.27
34124;BME280;13153;52.316;21.166;2024-02-16T05:04:11;100967.25;;;10.51;52.31
34124;BME280;13153;52.316;21.166;2024-02-16T05:06:46;100963.59;;;10.48;52.23
34124;BME280;13153;52.316;21.166;2024-02-16T05:09:12;100973.56;;;10.56;51.91
34124;BME280;13153;52.316;21.166;2024-02-16T05:11:45;100972.09;;;10.65;51.87
34124;BME280;13153;52.316;21.166;2024-02-16T05:14:11;100972.22;;;10.68;51.63
34124;BME280;13153;52.316;21.166;2024-02-16T05:16:43;100967.84;;;10.68;51.67
34124;BME280;13153;52.316;21.166;2024-02-16T05:19:09;100967.63;;;10.62;51.74
34124;BME280;13153;52.316;21.166;2024-02-16T05:21:35;100967.31;;;10.53;51.72
34124;BME280;13153;52.316;21.166;2024-02-16T05:24:01;100972.50;;;10.51;51.65
34124;BME280;13153;52.316;21.166;2024-02-16T05:26:26;100971.78;;;10.55;51.63
34124;BME280;13153;52.316;21.166;2024-02-16T05:28:52;100968.19;;;10.53;51.75
34124;BME280;13153;52.316;21.166;2024-02-16T05:31:18;100970.59;;;10.47;51.91
34124;BME280;13153;52.316;21.166;2024-02-16T05:33:49;100973.06;;;10.43;51.83
34124;BME280;13153;52.316;21.166;2024-02-16T05:36:22;100970.19;;;10.35;52.10
34124;BME280;13153;52.316;21.166;2024-02-16T05:38:50;100971.13;;;10.37;51.84
34124;BME280;13153;52.316;21.166;2024-02-16T05:41:17;100982.69;;;10.42;51.77
34124;BME280;13153;52.316;21.166;2024-02-16T05:43:46;100987.34;;;10.49;51.73
34124;BME280;13153;52.316;21.166;2024-02-16T05:46:16;100988.19;;;10.48;51.42
34124;BME280;13153;52.316;21.166;2024-02-16T05:48:43;100991.41;;;10.40;51.74
34124;BME280;13153;52.316;21.166;2024-02-16T05:51:10;100990.59;;;10.42;51.44
34124;BME280;13153;52.316;21.166;2024-02-16T05:53:38;100987.97;;;10.42;51.61
34124;BME280;13153;52.316;21.166;2024-02-16T05:56:05;100992.56;;;10.48;51.40
34124;BME280;13153;52.316;21.166;2024-02-16T05:58:31;100991.66;;;10.47;51.24
34124;BME280;13153;52.316;21.166;2024-02-16T06:00:57;100993.50;;;10.50;51.11
34124;BME280;13153;52.316;21.166;2024-02-16T06:03:23;100991.09;;;10.56;51.38
34124;BME280;13153;52.316;21.166;2024-02-16T06:05:49;100993.72;;;10.56;51.09
34124;BME280;13153;52.316;21.166;2024-02-16T06:08:14;101000.28;;;10.67;51.00
34124;BME280;13153;52.316;21.166;2024-02-16T06:10:44;100998.41;;;10.88;50.67
34124;BME280;13153;52.316;21.166;2024-02-16T06:13:17;101007.22;;;11.16;49.87
34124;BME280;13153;52.316;21.166;2024-02-16T06:15:43;101004.06;;;11.26;49.49
34124;BME280;13153;52.316;21.166;2024-02-16T06:18:09;101008.44;;;11.25;49.31
34124;BME280;13153;52.316;21.166;2024-02-16T06:20:35;101009.47;;;11.57;48.61
34124;BME280;13153;52.316;21.166;2024-02-16T06:23:01;101012.63;;;11.73;48.24
34124;BME280;13153;52.316;21.166;2024-02-16T06:25:27;101018.13;;;11.79;48.52
34124;BME280;13153;52.316;21.166;2024-02-16T06:27:53;101013.22;;;11.64;48.11
34124;BME280;13153;52.316;21.166;2024-02-16T06:30:18;101017.16;;;11.77;47.83
34124;BME280;13153;52.316;21.166;2024-02-16T06:32:44;101019.16;;;11.84;48.12
34124;BME280;13153;52.316;21.166;2024-02-16T06:35:10;101018.22;;;11.55;48.39
34124;BME280;13153;52.316;21.166;2024-02-16T06:37:37;101026.91;;;11.79;47.88
34124;BME280;13153;52.316;21.166;2024-02-16T06:40:07;101028.28;;;11.68;48.34
34124;BME280;13153;52.316;21.166;2024-02-16T06:42:36;101026.91;;;11.79;47.74
34124;BME280;13153;52.316;21.166;2024-02-16T06:45:02;101023.56;;;12.12;48.12
34124;BME280;13153;52.316;21.166;2024-02-16T06:47:31;101030.28;;;12.02;47.40
34124;BME280;13153;52.316;21.166;2024-02-16T06:49:57;101030.63;;;12.13;47.04
34124;BME280;13153;52.316;21.166;2024-02-16T06:52:23;101038.59;;;12.16;46.98
34124;BME280;13153;52.316;21.166;2024-02-16T06:54:48;101036.91;;;12.18;46.78
34124;BME280;13153;52.316;21.166;2024-02-16T06:57:17;101038.34;;;12.07;46.82
34124;BME280;13153;52.316;21.166;2024-02-16T06:59:43;101042.53;;;12.30;46.99
34124;BME280;13153;52.316;21.166;2024-02-16T07:02:09;101041.19;;;12.14;46.92
34124;BME280;13153;52.316;21.166;2024-02-16T07:04:36;101034.94;;;12.41;46.35
34124;BME280;13153;52.316;21.166;2024-02-16T07:07:02;101047.72;;;12.27;46.58
34124;BME280;13153;52.316;21.166;2024-02-16T07:09:29;101042.22;;;12.19;47.65
34124;BME280;13153;52.316;21.166;2024-02-16T07:11:55;101049.72;;;12.34;46.74
34124;BME280;13153;52.316;21.166;2024-02-16T07:14:21;101047.38;;;12.45;46.28
34124;BME280;13153;52.316;21.166;2024-02-16T07:16:46;101037.69;;;12.75;46.12
34124;BME280;13153;52.316;21.166;2024-02-16T07:19:12;101043.19;;;12.51;46.31
34124;BME280;13153;52.316;21.166;2024-02-16T07:21:38;101043.19;;;12.51;46.52
34124;BME280;13153;52.316;21.166;2024-02-16T07:24:04;101045.28;;;12.63;45.99
34124;BME280;13153;52.316;21.166;2024-02-16T07:26:30;101046.34;;;12.70;45.41
34124;BME280;13153;52.316;21.166;2024-02-16T07:28:56;101042.59;;;12.93;45.41
34124;BME280;13153;52.316;21.166;2024-02-16T07:31:21;101048.16;;;12.71;45.30
34124;BME280;13153;52.316;21.166;2024-02-16T07:33:47;101054.41;;;12.76;45.80
34124;BME280;13153;52.316;21.166;2024-02-16T07:36:13;101053.63;;;12.78;45.60
34124;BME280;13153;52.316;21.166;2024-02-16T07:38:39;101045.53;;;13.04;44.74
34124;BME280;13153;52.316;21.166;2024-02-16T07:41:05;101046.63;;;12.80;45.15
34124;BME280;13153;52.316;21.166;2024-02-16T07:43:32;101037.91;;;12.83;45.29
34124;BME280;13153;52.316;21.166;2024-02-16T07:45:58;101040.19;;;12.69;45.79
34124;BME280;13153;52.316;21.166;2024-02-16T07:48:24;101045.66;;;12.77;46.12
34124;BME280;13153;52.316;21.166;2024-02-16T07:50:50;101038.88;;;12.86;45.35
34124;BME280;13153;52.316;21.166;2024-02-16T07:53:16;101045.34;;;12.98;45.24
34124;BME280;13153;52.316;21.166;2024-02-16T07:55:42;101047.84;;;13.23;44.84
34124;BME280;13153;52.316;21.166;2024-02-16T07:58:07;101046.06;;;13.22;44.34
34124;BME280;13153;52.316;21.166;2024-02-16T08:00:34;101046.25;;;13.31;44.43
34124;BME280;13153;52.316;21.166;2024-02-16T08:03:00;101048.16;;;13.04;44.82
34124;BME280;13153;52.316;21.166;2024-02-16T08:05:26;101040.19;;;13.35;44.43
34124;BME280;13153;52.316;21.166;2024-02-16T08:07:52;101044.97;;;13.15;44.61
34124;BME280;13153;52.316;21.166;2024-02-16T08:10:22;101052.75;;;13.44;44.13
34124;BME280;13153;52.316;21.166;2024-02-16T08:12:48;101044.38;;;13.60;43.73
34124;BME280;13153;52.316;21.166;2024-02-16T08:15:14;101048.47;;;13.83;43.18
34124;BME280;13153;52.316;21.166;2024-02-16T08:17:40;101039.78;;;13.91;42.80
34124;BME280;13153;52.316;21.166;2024-02-16T08:20:07;101049.25;;;13.79;43.22
34124;BME280;13153;52.316;21.166;2024-02-16T08:22:33;101037.53;;;14.07;42.94
34124;BME280;13153;52.316;21.166;2024-02-16T08:25:00;101049.41;;;14.25;42.58
34124;BME280;13153;52.316;21.166;2024-02-16T08:27:26;101044.56;;;14.05;42.66
34124;BME280;13153;52.316;21.166;2024-02-16T08:29:52;101036.19;;;14.26;42.37
34124;BME280;13153;52.316;21.166;2024-02-16T08:32:18;101038.72;;;14.20;42.20
34124;BME280;13153;52.316;21.166;2024-02-16T08:34:46;101036.81;;;14.53;41.70
34124;BME280;13153;52.316;21.166;2024-02-16T08:37:14;101030.19;;;14.75;41.19
34124;BME280;13153;52.316;21.166;2024-02-16T08:39:39;101034.84;;;14.45;42.17
34124;BME280;13153;52.316;21.166;2024-02-16T08:42:07;101035.06;;;14.56;41.34
34124;BME280;13153;52.316;21.166;2024-02-16T08:44:34;101026.16;;;14.50;41.91
34124;BME280;13153;52.316;21.166;2024-02-16T08:47:00;101027.41;;;14.69;41.66
34124;BME280;13153;52.316;21.166;2024-02-16T08:49:26;101027.19;;;14.59;41.46
34124;BME280;13153;52.316;21.166;2024-02-16T08:51:52;101038.47;;;14.92;41.47
34124;BME280;13153;52.316;21.166;2024-02-16T08:54:18;101038.91;;;15.16;40.83
34124;BME280;13153;52.316;21.166;2024-02-16T08:56:45;101036.31;;;15.19;40.83
34124;BME280;13153;52.316;21.166;2024-02-16T08:59:11;101037.47;;;15.34;40.19
34124;BME280;13153;52.316;21.166;2024-02-16T09:01:38;101041.44;;;15.60;40.13
34124;BME280;13153;52.316;21.166;2024-02-16T09:04:07;101034.66;;;15.77;40.10
34124;BME280;13153;52.316;21.166;2024-02-16T09:06:32;101037.91;;;15.58;39.62
34124;BME280;13153;52.316;21.166;2024-02-16T09:09:00;101026.06;;;15.39;40.33
34124;BME280;13153;52.316;21.166;2024-02-16T09:11:26;101035.66;;;15.33;40.24
34124;BME280;13153;52.316;21.166;2024-02-16T09:13:53;101032.00;;;15.25;40.44
34124;BME280;13153;52.316;21.166;2024-02-16T09:16:19;101028.69;;;15.38;40.45
34124;BME280;13153;52.316;21.166;2024-02-16T09:18:45;101019.31;;;15.08;40.87
34124;BME280;13153;52.316;21.166;2024-02-16T09:21:11;101026.63;;;15.22;40.84
34124;BME280;13153;52.316;21.166;2024-02-16T09:23:37;101018.28;;;15.50;40.47
34124;BME280;13153;52.316;21.166;2024-02-16T09:26:03;101020.72;;;15.36;40.95
34124;BME280;13153;52.316;21.166;2024-02-16T09:28:29;101013.25;;;15.65;40.59
34124;BME280;13153;52.316;21.166;2024-02-16T09:30:56;101016.88;;;15.72;40.36
34124;BME280;13153;52.316;21.166;2024-02-16T09:33:23;101018.09;;;15.92;39.92
34124;BME280;13153;52.316;21.166;2024-02-16T09:35:50;101010.56;;;15.64;40.17
34124;BME280;13153;52.316;21.166;2024-02-16T09:38:16;101019.44;;;15.66;40.28
34124;BME280;13153;52.316;21.166;2024-02-16T09:40:44;101019.03;;;15.96;40.07
34124;BME280;13153;52.316;21.166;2024-02-16T09:43:10;101011.88;;;15.37;41.10
34124;BME280;13153;52.316;21.166;2024-02-16T09:45:36;101004.38;;;15.63;40.51
34124;BME280;13153;52.316;21.166;2024-02-16T09:48:07;101002.25;;;15.42;41.37
34124;BME280;13153;52.316;21.166;2024-02-16T09:50:35;100997.72;;;15.35;41.83
34124;BME280;13153;52.316;21.166;2024-02-16T09:53:04;101004.41;;;15.66;40.95
34124;BME280;13153;52.316;21.166;2024-02-16T09:55:32;101000.66;;;15.52;41.28
34124;BME280;13153;52.316;21.166;2024-02-16T09:58:01;100992.59;;;15.46;41.46
34124;BME280;13153;52.316;21.166;2024-02-16T10:00:27;100985.53;;;15.46;41.31
34124;BME280;13153;52.316;21.166;2024-02-16T10:02:53;100984.38;;;15.87;40.56
34124;BME280;13153;52.316;21.166;2024-02-16T10:05:20;100982.88;;;16.05;40.34
34124;BME280;13153;52.316;21.166;2024-02-16T10:07:47;100991.84;;;16.13;40.38
34124;BME280;13153;52.316;21.166;2024-02-16T10:10:27;100986.41;;;16.04;40.27
34124;BME280;13153;52.316;21.166;2024-02-16T10:13:06;100996.16;;;16.04;40.76
34124;BME280;13153;52.316;21.166;2024-02-16T10:15:32;100987.66;;;16.34;39.98
34124;BME280;13153;52.316;21.166;2024-02-16T10:18:05;100989.31;;;16.24;39.97
34124;BME280;13153;52.316;21.166;2024-02-16T10:20:38;100981.13;;;16.06;40.15
34124;BME280;13153;52.316;21.166;2024-02-16T10:23:09;100982.84;;;16.02;40.48
34124;BME280;13153;52.316;21.166;2024-02-16T10:25:39;100978.56;;;16.12;41.14
34124;BME280;13153;52.316;21.166;2024-02-16T10:28:10;100974.06;;;16.08;40.39
34124;BME280;13153;52.316;21.166;2024-02-16T10:30:41;100968.72;;;16.05;40.77
34124;BME280;13153;52.316;21.166;2024-02-16T10:33:11;100967.63;;;15.91;40.79
34124;BME280;13153;52.316;21.166;2024-02-16T10:35:41;100966.25;;;16.17;40.29
34124;BME280;13153;52.316;21.166;2024-02-16T10:38:10;100959.16;;;16.16;40.33
34124;BME280;13153;52.316;21.166;2024-02-16T10:40:41;100947.41;;;15.99;40.72
34124;BME280;13153;52.316;21.166;2024-02-16T10:43:09;100957.41;;;16.21;40.40
34124;BME280;13153;52.316;21.166;2024-02-16T10:45:38;100946.97;;;16.36;40.11
34124;BME280;13153;52.316;21.166;2024-02-16T10:48:06;100943.22;;;16.19;40.55
34124;BME280;13153;52.316;21.166;2024-02-16T10:50:35;100945.06;;;16.26;40.81
34124;BME280;13153;52.316;21.166;2024-02-16T10:55:41;100924.81;;;16.33;40.88
34124;BME280;13153;52.316;21.166;2024-02-16T10:58:11;100925.34;;;16.03;41.32
34124;BME280;13153;52.316;21.166;2024-02-16T11:00:52;100927.63;;;16.46;41.20
34124;BME280;13153;52.316;21.166;2024-02-16T11:03:24;100918.38;;;16.12;41.03
34124;BME280;13153;52.316;21.166;2024-02-16T11:05:51;100915.13;;;16.38;41.21
34124;BME280;13153;52.316;21.166;2024-02-16T11:08:19;100906.28;;;16.39;41.24
34124;BME280;13153;52.316;21.166;2024-02-16T11:11:02;100921.97;;;16.16;41.33
34124;BME280;13153;52.316;21.166;2024-02-16T11:13:34;100914.16;;;16.31;41.38
34124;BME280;13153;52.316;21.166;2024-02-16T11:16:18;100907.22;;;16.44;41.13
34124;BME280;13153;52.316;21.166;2024-02-16T11:18:46;100915.31;;;16.55;41.03
34124;BME280;13153;52.316;21.166;2024-02-16T11:21:15;100912.31;;;16.24;41.73
34124;BME280;13153;52.316;21.166;2024-02-16T11:23:42;100905.50;;;16.49;41.14
34124;BME280;13153;52.316;21.166;2024-02-16T11:26:13;100897.38;;;16.35;41.33
34124;BME280;13153;52.316;21.166;2024-02-16T11:28:42;100907.03;;;16.27;41.68
34124;BME280;13153;52.316;21.166;2024-02-16T11:31:08;100906.09;;;16.22;42.18
34124;BME280;13153;52.316;21.166;2024-02-16T11:33:35;100897.16;;;16.14;42.29
34124;BME280;13153;52.316;21.166;2024-02-16T11:36:05;100872.47;;;16.24;42.62
34124;BME280;13153;52.316;21.166;2024-02-16T11:38:34;100876.81;;;16.14;42.86
34124;BME280;13153;52.316;21.166;2024-02-16T11:41:07;100868.06;;;16.26;42.61
34124;BME280;13153;52.316;21.166;2024-02-16T11:43:36;100880.38;;;16.15;42.85
34124;BME280;13153;52.316;21.166;2024-02-16T11:46:13;100868.97;;;16.27;42.81
34124;BME280;13153;52.316;21.166;2024-02-16T11:48:39;100864.78;;;16.48;42.52
34124;BME280;13153;52.316;21.166;2024-02-16T11:51:05;100859.44;;;16.47;42.75
34124;BME280;13153;52.316;21.166;2024-02-16T11:53:31;100862.75;;;16.25;43.15
34124;BME280;13153;52.316;21.166;2024-02-16T11:55:58;100860.09;;;16.26;43.25
34124;BME280;13153;52.316;21.166;2024-02-16T11:58:25;100868.06;;;16.26;43.65
34124;BME280;13153;52.316;21.166;2024-02-16T12:00:52;100854.97;;;16.43;43.36
34124;BME280;13153;52.316;21.166;2024-02-16T12:03:25;100843.31;;;16.29;43.78
34124;BME280;13153;52.316;21.166;2024-02-16T12:05:58;100857.78;;;16.58;43.47
34124;BME280;13153;52.316;21.166;2024-02-16T12:08:34;100845.59;;;16.80;42.84
34124;BME280;13153;52.316;21.166;2024-02-16T12:11:02;100857.78;;;16.58;43.05
34124;BME280;13153;52.316;21.166;2024-02-16T12:13:28;100850.84;;;16.68;43.11
34124;BME280;13153;52.316;21.166;2024-02-16T12:15:54;100855.13;;;16.58;43.32
34124;BME280;13153;52.316;21.166;2024-02-16T12:18:26;100836.47;;;16.50;43.94
34124;BME280;13153;52.316;21.166;2024-02-16T12:21:04;100838.00;;;16.29;44.25
34124;BME280;13153;52.316;21.166;2024-02-16T12:23:32;100837.44;;;16.59;43.95
34124;BME280;13153;52.316;21.166;2024-02-16T12:25:59;100831.34;;;16.67;43.72
34124;BME280;13153;52.316;21.166;2024-02-16T12:28:31;100829.34;;;16.46;44.52
34124;BME280;13153;52.316;21.166;2024-02-16T12:31:02;100825.81;;;16.49;44.16
34124;BME280;13153;52.316;21.166;2024-02-16T12:33:28;100820.59;;;16.60;43.88
34124;BME280;13153;52.316;21.166;2024-02-16T12:35:53;100825.19;;;16.76;43.92
34124;BME280;13153;52.316;21.166;2024-02-16T12:38:19;100817.06;;;16.59;44.19
34124;BME280;13153;52.316;21.166;2024-02-16T12:40:49;100830.34;;;16.61;44.28
34124;BME280;13153;52.316;21.166;2024-02-16T12:43:15;100822.53;;;16.76;44.10